createdAt,value
2023-01-27T00:01:01.643Z,8.48
2023-01-27T00:03:28.711Z,6.53
2023-01-27T00:05:58.361Z,9.07
2023-01-27T00:08:25.790Z,8.07
2023-01-27T00:11:12.812Z,4.82
2023-01-27T00:16:07.901Z,5.72
2023-01-27T00:18:35.230Z,5.30
2023-01-27T00:21:20.706Z,6.82
2023-01-27T00:24:06.113Z,5.35
2023-01-27T00:26:33.208Z,6.82
2023-01-27T00:29:00.480Z,5.60
2023-01-27T00:31:47.245Z,7.55
2023-01-27T00:34:14.495Z,6.00
2023-01-27T00:36:42.684Z,7.65
2023-01-27T00:39:12.812Z,10.00
2023-01-27T00:41:40.463Z,6.75
2023-01-27T00:44:12.787Z,8.75
2023-01-27T00:46:40.242Z,7.43
2023-01-27T00:49:07.157Z,5.57
2023-01-27T00:51:36.841Z,6.20
2023-01-27T00:54:05.569Z,5.57
2023-01-27T00:56:33.491Z,9.90
2023-01-27T00:59:00.967Z,5.57
2023-01-27T01:01:28.047Z,4.93
2023-01-27T01:03:56.514Z,11.25
2023-01-27T01:06:23.573Z,6.30
2023-01-27T01:08:53.272Z,4.68
2023-01-27T01:11:23.654Z,7.63
2023-01-27T01:13:51.223Z,4.45
2023-01-27T01:16:22.057Z,12.98
2023-01-27T01:18:50.026Z,5.38
2023-01-27T01:21:17.382Z,7.95
2023-01-27T01:23:45.970Z,9.82
2023-01-27T01:28:40.696Z,6.57
2023-01-27T01:31:13.355Z,4.00
2023-01-27T01:33:40.616Z,6.47
2023-01-27T01:36:14.522Z,6.65
2023-01-27T01:38:41.685Z,6.85
2023-01-27T01:41:13.785Z,7.78
2023-01-27T01:43:42.004Z,15.07
2023-01-27T01:46:14.582Z,10.88
2023-01-27T01:48:49.103Z,8.73
2023-01-27T01:51:31.347Z,8.93
2023-01-27T01:54:11.636Z,10.27
2023-01-27T01:56:46.798Z,11.20
2023-01-27T01:59:21.132Z,9.93
2023-01-27T02:01:49.088Z,9.57
2023-01-27T02:04:20.387Z,12.48
2023-01-27T02:07:04.963Z,11.38
2023-01-27T02:09:32.306Z,12.30
2023-01-27T02:12:01.708Z,12.38
2023-01-27T02:14:28.717Z,12.48
2023-01-27T02:16:55.818Z,13.57
2023-01-27T02:19:31.849Z,11.23
2023-01-27T02:22:01.984Z,16.02
2023-01-27T02:24:36.931Z,11.85
2023-01-27T02:29:34.760Z,13.73
2023-01-27T02:32:02.032Z,14.77
2023-01-27T02:34:34.191Z,12.23
2023-01-27T02:37:06.162Z,13.15
2023-01-27T02:39:40.800Z,10.90
2023-01-27T02:42:12.313Z,11.93
2023-01-27T02:44:39.692Z,12.35
2023-01-27T02:47:07.079Z,14.50
2023-01-27T02:49:34.224Z,12.32
2023-01-27T02:52:01.130Z,15.27
2023-01-27T02:54:30.240Z,11.48
2023-01-27T02:56:57.255Z,15.48
2023-01-27T02:59:24.227Z,12.80
2023-01-27T03:01:51.475Z,16.45
2023-01-27T03:04:18.527Z,11.75
2023-01-27T03:06:45.648Z,17.40
2023-01-27T03:09:12.673Z,10.32
2023-01-27T03:11:58.030Z,13.38
2023-01-27T03:14:43.617Z,9.50
2023-01-27T03:17:29.557Z,14.73
2023-01-27T03:19:57.775Z,14.27
2023-01-27T03:22:24.758Z,8.95
2023-01-27T03:24:52.856Z,17.55
2023-01-27T03:27:19.905Z,12.38
2023-01-27T03:29:56.499Z,11.07
2023-01-27T03:32:25.766Z,8.68
2023-01-27T03:34:53.233Z,8.20
2023-01-27T03:37:40.367Z,7.13
2023-01-27T03:40:28.804Z,5.25
2023-01-27T03:43:14.706Z,6.70
2023-01-27T03:46:06.258Z,6.38
2023-01-27T03:48:34.266Z,5.75
2023-01-27T03:51:02.544Z,6.57
2023-01-27T03:53:29.644Z,7.03
2023-01-27T03:55:56.757Z,6.45
2023-01-27T03:58:27.164Z,6.68
2023-01-27T04:00:57.717Z,7.07
2023-01-27T04:03:45.637Z,6.35
2023-01-27T04:06:33.359Z,8.65
2023-01-27T04:09:00.964Z,6.90
2023-01-27T04:11:47.420Z,4.55
2023-01-27T04:14:14.700Z,5.63
2023-01-27T04:16:42.524Z,6.00
2023-01-27T04:19:11.341Z,5.57
2023-01-27T04:21:38.308Z,5.18
2023-01-27T04:24:09.012Z,5.70
2023-01-27T04:26:38.621Z,5.78
2023-01-27T04:29:07.525Z,6.85
2023-01-27T04:31:35.325Z,6.85
2023-01-27T04:34:03.181Z,5.80
2023-01-27T04:36:30.281Z,5.53
2023-01-27T04:38:57.645Z,6.22
2023-01-27T04:41:24.940Z,4.00
2023-01-27T04:43:52.647Z,4.00
2023-01-27T04:46:19.859Z,4.97
2023-01-27T04:48:46.646Z,5.82
2023-01-27T04:51:14.046Z,3.15
2023-01-27T04:53:41.280Z,4.95
2023-01-27T04:56:22.935Z,3.30
2023-01-27T04:58:50.509Z,3.83
2023-01-27T05:01:17.880Z,3.08
2023-01-27T05:03:46.012Z,3.67
2023-01-27T05:06:14.843Z,2.88
2023-01-27T05:08:42.070Z,2.55
2023-01-27T05:11:09.585Z,3.25
2023-01-27T05:13:38.590Z,2.88
2023-01-27T05:16:24.046Z,2.97
2023-01-27T05:18:53.637Z,2.58
2023-01-27T05:21:23.325Z,2.80
2023-01-27T05:23:51.906Z,9.73
2023-01-27T05:28:49.360Z,4.90
2023-01-27T05:31:22.516Z,2.20
2023-01-27T05:33:51.969Z,5.60
2023-01-27T05:36:21.253Z,1.38
2023-01-27T05:38:49.023Z,2.67
2023-01-27T05:41:19.855Z,2.55
2023-01-27T05:43:51.545Z,4.03
2023-01-27T05:46:21.708Z,2.40
2023-01-27T05:48:53.081Z,2.10
2023-01-27T05:51:25.076Z,2.47
2023-01-27T05:53:54.540Z,1.80
2023-01-27T05:58:48.731Z,1.73
2023-01-27T06:01:21.825Z,1.35
2023-01-27T06:03:49.178Z,4.05
2023-01-27T06:06:21.033Z,2.45
2023-01-27T06:08:48.909Z,4.97
2023-01-27T06:11:19.970Z,3.13
2023-01-27T06:13:47.974Z,1.63
2023-01-27T06:16:20.601Z,2.58
2023-01-27T06:18:48.657Z,5.78
2023-01-27T06:21:17.027Z,1.88
2023-01-27T06:23:44.097Z,5.15
2023-01-27T06:26:18.735Z,2.83
2023-01-27T06:31:16.228Z,3.95
2023-01-27T06:33:44.452Z,3.33
2023-01-27T06:36:14.115Z,4.55
2023-01-27T06:38:41.365Z,2.85
2023-01-27T06:41:08.584Z,2.50
2023-01-27T06:43:35.662Z,3.42
2023-01-27T06:46:05.700Z,3.20
2023-01-27T06:48:34.116Z,3.83
2023-01-27T06:51:01.558Z,2.80
2023-01-27T06:53:28.785Z,3.42
2023-01-27T06:56:01.131Z,1.30
2023-01-27T06:58:28.825Z,3.55
2023-01-27T07:00:57.221Z,3.22
2023-01-27T07:03:25.193Z,1.92
2023-01-27T07:05:53.598Z,2.72
2023-01-27T07:08:20.832Z,2.67
2023-01-27T07:10:47.853Z,4.53
2023-01-27T07:13:16.145Z,3.22
2023-01-27T07:15:43.280Z,1.35
2023-01-27T07:18:12.280Z,1.52
2023-01-27T07:20:39.986Z,3.65
2023-01-27T07:23:07.395Z,2.72
2023-01-27T07:25:36.070Z,1.50
2023-01-27T07:30:37.605Z,1.48
2023-01-27T07:33:06.789Z,1.63
2023-01-27T07:35:34.194Z,4.53
2023-01-27T07:38:02.891Z,3.10
2023-01-27T07:43:00.963Z,1.92
2023-01-27T07:45:29.435Z,1.17
2023-01-27T07:48:13.140Z,4.00
2023-01-27T07:50:41.989Z,1.33
2023-01-27T07:53:10.917Z,1.88
2023-01-27T07:55:38.127Z,1.70
2023-01-27T07:58:06.087Z,3.08
2023-01-27T08:00:33.698Z,6.45
2023-01-27T08:03:02.102Z,2.53
2023-01-27T08:05:34.849Z,2.47
2023-01-27T08:08:04.659Z,10.40
2023-01-27T08:10:32.123Z,1.35
2023-01-27T08:12:59.341Z,2.50
2023-01-27T08:15:27.492Z,1.98
2023-01-27T08:17:58.941Z,2.30
2023-01-27T08:20:27.888Z,3.72
2023-01-27T08:22:55.203Z,2.00
2023-01-27T08:25:22.455Z,2.80
2023-01-27T08:27:51.324Z,5.55
2023-01-27T08:30:19.444Z,2.70
2023-01-27T08:32:46.848Z,4.22
2023-01-27T08:35:14.304Z,5.82
2023-01-27T08:37:41.174Z,2.42
2023-01-27T08:40:09.040Z,3.30
2023-01-27T08:42:36.020Z,2.97
2023-01-27T08:45:03.351Z,1.95
2023-01-27T08:47:30.503Z,3.75
2023-01-27T08:49:57.435Z,5.45
2023-01-27T08:52:24.340Z,1.73
2023-01-27T08:54:51.514Z,3.90
2023-01-27T08:57:18.553Z,2.40
2023-01-27T08:59:46.411Z,2.97
2023-01-27T09:02:14.608Z,3.17
2023-01-27T09:04:44.446Z,2.22
2023-01-27T09:07:11.973Z,2.17
2023-01-27T09:09:39.136Z,3.53
2023-01-27T09:12:06.065Z,2.38
2023-01-27T09:14:34.539Z,1.67
2023-01-27T09:17:03.845Z,1.83
2023-01-27T09:19:30.987Z,2.85
2023-01-27T09:21:58.031Z,2.35
2023-01-27T09:24:25.333Z,2.25
2023-01-27T09:26:52.631Z,2.22
2023-01-27T09:29:19.693Z,2.50
2023-01-27T09:31:49.702Z,2.50
2023-01-27T09:34:18.048Z,3.95
2023-01-27T09:36:49.892Z,3.85
2023-01-27T09:39:20.087Z,2.78
2023-01-27T09:42:01.945Z,3.45
2023-01-27T09:44:57.112Z,2.35
2023-01-27T09:47:33.381Z,1.27
2023-01-27T09:50:19.997Z,1.50
2023-01-27T09:53:19.157Z,3.90
2023-01-27T09:55:58.529Z,1.67
2023-01-27T09:58:50.212Z,3.80
2023-01-27T10:01:31.286Z,3.83
2023-01-27T10:04:06.221Z,2.60
2023-01-27T10:09:43.437Z,2.75
2023-01-27T10:12:30.887Z,4.18
2023-01-27T10:15:20.982Z,1.77
2023-01-27T10:17:56.749Z,1.20
2023-01-27T10:20:35.591Z,0.90
2023-01-27T10:23:14.299Z,1.08
2023-01-27T10:26:18.544Z,1.55
2023-01-27T10:29:09.012Z,2.80
2023-01-27T10:32:06.537Z,2.13
2023-01-27T10:34:37.012Z,5.53
2023-01-27T10:37:27.308Z,1.23
2023-01-27T10:40:03.009Z,0.60
2023-01-27T10:42:44.542Z,1.58
2023-01-27T10:45:23.411Z,1.52
2023-01-27T10:48:16.479Z,2.17
2023-01-27T10:51:07.856Z,3.17
2023-01-27T10:53:58.169Z,1.90
2023-01-27T10:56:31.719Z,2.10
2023-01-27T10:59:26.598Z,1.73
2023-01-27T11:02:00.770Z,1.17
2023-01-27T11:04:37.775Z,1.35
2023-01-27T11:07:06.864Z,1.60
2023-01-27T11:09:44.912Z,1.83
2023-01-27T11:12:16.255Z,1.15
2023-01-27T11:14:52.706Z,4.78
2023-01-27T11:17:31.067Z,10.88
2023-01-27T11:20:20.194Z,1.25
2023-01-27T11:23:16.796Z,1.30
2023-01-27T11:26:01.541Z,2.40
2023-01-27T11:28:48.719Z,2.67
2023-01-27T11:31:22.341Z,0.85
2023-01-27T11:34:04.038Z,1.00
2023-01-27T11:36:31.525Z,1.63
2023-01-27T11:39:01.719Z,1.70
2023-01-27T11:41:32.298Z,0.73
2023-01-27T11:44:04.974Z,2.25
2023-01-27T11:46:32.540Z,1.48
2023-01-27T11:48:59.607Z,1.30
2023-01-27T11:51:35.522Z,1.88
2023-01-27T11:54:14.533Z,2.25
2023-01-27T11:56:47.321Z,2.15
2023-01-27T11:59:29.605Z,2.70
2023-01-27T12:02:03.678Z,1.52
2023-01-27T12:04:53.462Z,1.58
2023-01-27T12:07:54.476Z,2.08
2023-01-27T12:10:42.225Z,1.45
2023-01-27T12:13:19.146Z,1.75
2023-01-27T12:16:05.288Z,2.38
2023-01-27T12:18:34.286Z,4.28
2023-01-27T12:21:04.264Z,3.00
2023-01-27T12:23:39.666Z,2.42
2023-01-27T12:26:09.155Z,3.72
2023-01-27T12:28:40.415Z,6.82
2023-01-27T12:31:11.272Z,2.35
2023-01-27T12:33:42.040Z,3.78
2023-01-27T12:36:24.610Z,3.08
2023-01-27T12:38:54.405Z,0.82
2023-01-27T12:41:28.489Z,0.10
2023-01-27T12:44:20.712Z,0.30
2023-01-27T12:47:01.599Z,0.90
2023-01-27T12:52:05.044Z,0.88
2023-01-27T12:54:33.191Z,1.25
2023-01-27T12:57:12.343Z,1.05
2023-01-27T12:59:52.464Z,2.38
2023-01-27T13:02:21.235Z,0.80
2023-01-27T13:04:53.409Z,0.73
2023-01-27T13:07:31.145Z,0.98
2023-01-27T13:10:03.897Z,1.20
2023-01-27T13:13:15.281Z,3.50
2023-01-27T13:15:53.685Z,1.88
2023-01-27T13:18:24.657Z,1.10
2023-01-27T13:20:58.799Z,1.85
2023-01-27T13:23:35.105Z,1.48
2023-01-27T13:26:13.400Z,0.77
2023-01-27T13:29:09.435Z,0.75
2023-01-27T13:31:52.865Z,0.77
2023-01-27T13:34:41.390Z,0.75
2023-01-27T13:37:19.407Z,1.33
2023-01-27T13:40:01.406Z,2.67
2023-01-27T13:42:33.851Z,1.40
2023-01-27T13:45:06.034Z,1.25
2023-01-27T13:48:05.112Z,1.63
2023-01-27T13:50:42.407Z,2.10
2023-01-27T13:53:29.542Z,2.30
2023-01-27T13:56:01.792Z,2.53
2023-01-27T13:59:09.656Z,1.92
2023-01-27T14:01:54.730Z,1.42
2023-01-27T14:05:00.546Z,3.08
2023-01-27T14:07:42.727Z,2.60
2023-01-27T14:10:41.602Z,4.18
2023-01-27T14:13:17.388Z,2.20
2023-01-27T14:15:55.135Z,3.03
2023-01-27T14:18:29.296Z,2.45
2023-01-27T14:21:39.320Z,2.08
2023-01-27T14:24:24.732Z,1.83
2023-01-27T14:27:01.036Z,2.72
2023-01-27T14:29:54.495Z,1.85
2023-01-27T14:32:47.080Z,1.83
2023-01-27T14:35:39.260Z,2.25
2023-01-27T14:38:39.949Z,3.80
2023-01-27T14:41:18.759Z,2.00
2023-01-27T14:44:15.898Z,1.50
2023-01-27T14:47:08.943Z,1.73
2023-01-27T14:52:58.860Z,2.15
2023-01-27T14:55:31.974Z,1.92
2023-01-27T14:58:29.476Z,1.98
2023-01-27T15:01:10.609Z,1.33
2023-01-27T15:04:26.562Z,2.58
2023-01-27T15:07:03.915Z,2.55
2023-01-27T15:10:02.201Z,2.00
2023-01-27T15:13:17.864Z,2.67
2023-01-27T15:16:01.623Z,1.63
2023-01-27T15:18:32.445Z,2.75
2023-01-27T15:21:21.124Z,2.08
2023-01-27T15:24:16.514Z,1.63
2023-01-27T15:26:44.372Z,2.45
2023-01-27T15:29:15.516Z,2.30
2023-01-27T15:31:43.342Z,2.03
2023-01-27T15:34:30.493Z,1.95
2023-01-27T15:37:12.512Z,1.27
2023-01-27T15:40:15.763Z,4.38
2023-01-27T15:42:58.555Z,4.55
2023-01-27T15:45:31.474Z,1.63
2023-01-27T15:48:24.686Z,2.03
2023-01-27T15:51:00.183Z,1.80
2023-01-27T15:53:37.290Z,4.03
2023-01-27T15:56:05.659Z,2.15
2023-01-27T16:01:12.279Z,2.15
2023-01-27T16:03:46.691Z,1.48
2023-01-27T16:06:25.497Z,2.85
2023-01-27T16:09:02.890Z,1.92
2023-01-27T16:11:30.037Z,4.47
2023-01-27T16:14:12.341Z,3.38
2023-01-27T16:17:03.215Z,4.43
2023-01-27T16:19:38.884Z,1.85
2023-01-27T16:22:12.705Z,4.43
2023-01-27T16:24:57.033Z,2.15
2023-01-27T16:27:52.342Z,2.50
2023-01-27T16:30:45.013Z,4.25
2023-01-27T16:33:34.746Z,4.43
2023-01-27T16:36:28.113Z,3.83
2023-01-27T16:38:58.385Z,2.42
2023-01-27T16:41:32.878Z,2.58
2023-01-27T16:44:05.295Z,2.67
2023-01-27T16:46:39.819Z,2.60
2023-01-27T16:49:23.446Z,2.30
2023-01-27T16:52:00.372Z,2.72
2023-01-27T16:54:34.343Z,2.53
2023-01-27T16:57:05.373Z,3.20
2023-01-27T16:59:39.074Z,2.42
2023-01-27T17:02:22.487Z,3.45
2023-01-27T17:05:04.640Z,3.78
2023-01-27T17:07:34.758Z,2.97
2023-01-27T17:10:16.779Z,3.60
2023-01-27T17:12:53.771Z,2.83
2023-01-27T17:15:29.307Z,2.97
2023-01-27T17:17:57.963Z,3.83
2023-01-27T17:20:32.228Z,2.58
2023-01-27T17:23:00.735Z,4.05
2023-01-27T17:25:32.919Z,3.05
2023-01-27T17:28:12.068Z,3.13
2023-01-27T17:30:42.736Z,6.43
2023-01-27T17:33:23.652Z,3.85
2023-01-27T17:38:45.650Z,3.60
2023-01-27T17:41:29.442Z,3.10
2023-01-27T17:44:02.637Z,2.63
2023-01-27T17:46:33.983Z,4.70
2023-01-27T17:49:14.470Z,3.65
2023-01-27T17:51:45.822Z,3.97
2023-01-27T17:54:25.681Z,4.15
2023-01-27T17:57:19.642Z,3.90
2023-01-27T18:00:10.857Z,3.10
2023-01-27T18:03:00.592Z,4.45
2023-01-27T18:05:32.356Z,7.22
2023-01-27T18:08:00.789Z,7.32
2023-01-27T18:10:46.117Z,4.43
2023-01-27T18:13:16.193Z,5.22
2023-01-27T18:15:54.607Z,4.50
2023-01-27T18:18:30.617Z,6.28
2023-01-27T18:20:57.568Z,5.25
2023-01-27T18:23:30.664Z,4.68
2023-01-27T18:26:16.603Z,5.88
2023-01-27T18:28:46.083Z,10.23
2023-01-27T18:31:20.676Z,5.53
2023-01-27T18:36:24.781Z,5.32
2023-01-27T18:38:52.486Z,6.78
2023-01-27T18:41:29.682Z,6.63
2023-01-27T18:43:59.409Z,6.47
2023-01-27T18:46:27.489Z,6.10
2023-01-27T18:48:55.749Z,5.97
2023-01-27T18:51:24.546Z,7.45
2023-01-27T18:53:52.281Z,5.82
2023-01-27T18:56:19.500Z,5.70
2023-01-27T18:58:46.675Z,4.53
2023-01-27T19:01:35.174Z,5.85
2023-01-27T19:04:03.220Z,5.88
2023-01-27T19:06:30.544Z,5.68
2023-01-27T19:08:58.649Z,5.72
2023-01-27T19:11:25.694Z,6.30
2023-01-27T19:13:57.745Z,5.72
2023-01-27T19:16:28.762Z,7.38
2023-01-27T19:18:56.928Z,7.07
2023-01-27T19:21:23.942Z,7.25
2023-01-27T19:23:51.411Z,6.95
2023-01-27T19:28:51.726Z,6.57
2023-01-27T19:31:19.423Z,6.38
2023-01-27T19:33:47.738Z,7.80
2023-01-27T19:36:29.794Z,5.13
2023-01-27T19:39:18.444Z,6.03
2023-01-27T19:41:46.231Z,5.70
2023-01-27T19:44:14.736Z,7.30
2023-01-27T19:46:43.453Z,10.23
2023-01-27T19:49:18.611Z,6.53
2023-01-27T19:51:45.851Z,8.77
2023-01-27T19:54:13.282Z,7.68
2023-01-27T19:56:40.478Z,8.18
2023-01-27T19:59:08.404Z,6.78
2023-01-27T20:01:36.143Z,7.75
2023-01-27T20:04:03.666Z,7.13
2023-01-27T20:06:34.409Z,6.70
2023-01-27T20:09:03.726Z,5.63
2023-01-27T20:11:40.009Z,8.05
2023-01-27T20:14:16.651Z,7.05
2023-01-27T20:16:43.900Z,7.15
2023-01-27T20:19:15.308Z,6.10
2023-01-27T20:21:43.913Z,6.38
2023-01-27T20:24:18.958Z,7.80
2023-01-27T20:26:47.413Z,5.28
2023-01-27T20:29:15.363Z,6.22
2023-01-27T20:31:42.656Z,4.60
2023-01-27T20:36:51.001Z,4.95
2023-01-27T20:39:18.109Z,8.27
2023-01-27T20:41:45.294Z,6.47
2023-01-27T20:44:13.387Z,5.22
2023-01-27T20:46:40.262Z,6.22
2023-01-27T20:49:07.597Z,6.28
2023-01-27T20:51:34.608Z,5.68
2023-01-27T20:54:01.863Z,7.20
2023-01-27T20:56:28.891Z,7.25
2023-01-27T20:58:56.159Z,7.30
2023-01-27T21:01:24.062Z,5.18
2023-01-27T21:09:09.102Z,5.05
2023-01-27T21:11:37.653Z,6.50
2023-01-27T21:16:32.487Z,4.95
2023-01-27T21:18:59.715Z,6.60
2023-01-27T21:21:33.923Z,7.18
2023-01-27T21:24:05.553Z,6.30
2023-01-27T21:26:39.201Z,5.72
2023-01-27T21:29:07.401Z,5.25
2023-01-27T21:31:34.661Z,5.55
2023-01-27T21:34:16.500Z,8.32
2023-01-27T21:36:43.665Z,6.30
2023-01-27T21:39:10.590Z,5.45
2023-01-27T21:41:52.827Z,6.57
2023-01-27T21:44:46.809Z,6.80
2023-01-27T21:47:19.449Z,5.57
2023-01-27T21:50:04.048Z,5.80
2023-01-27T21:52:46.911Z,6.53
2023-01-27T21:55:26.466Z,5.63
2023-01-27T21:57:56.237Z,6.75
2023-01-27T22:00:26.849Z,7.68
2023-01-27T22:02:58.252Z,8.30
2023-01-27T22:05:27.268Z,5.65
2023-01-27T22:07:56.888Z,7.43
2023-01-27T22:10:27.597Z,7.25
2023-01-27T22:13:04.305Z,6.63
2023-01-27T22:15:32.279Z,6.88
2023-01-27T22:18:01.401Z,6.75
2023-01-27T22:20:35.857Z,6.25
2023-01-27T22:23:03.018Z,6.70
2023-01-27T22:25:31.335Z,6.43
2023-01-27T22:27:58.224Z,6.40
2023-01-27T22:30:26.283Z,7.82
2023-01-27T22:32:53.148Z,5.72
2023-01-27T22:35:20.219Z,7.55
2023-01-27T22:37:50.440Z,7.75
2023-01-27T22:40:18.101Z,6.90
2023-01-27T22:42:50.883Z,7.18
2023-01-27T22:45:18.602Z,8.05
2023-01-27T22:47:45.602Z,10.32
2023-01-27T22:50:13.244Z,6.95
2023-01-27T22:52:39.992Z,7.10
2023-01-27T22:55:08.866Z,7.57
2023-01-27T22:57:35.789Z,6.57
2023-01-27T23:00:02.971Z,6.70
2023-01-27T23:02:29.857Z,6.47
2023-01-27T23:04:57.515Z,6.78
2023-01-27T23:07:26.109Z,5.38
2023-01-27T23:12:19.618Z,5.63
2023-01-27T23:14:46.364Z,6.90
2023-01-27T23:17:15.922Z,6.82
2023-01-27T23:19:42.921Z,5.70
2023-01-27T23:22:09.670Z,5.90
2023-01-27T23:24:37.453Z,5.55
2023-01-27T23:27:07.390Z,7.10
2023-01-27T23:29:34.095Z,7.05
2023-01-27T23:32:02.239Z,6.68
2023-01-27T23:34:29.108Z,6.18
2023-01-27T23:36:56.913Z,7.35
2023-01-27T23:39:23.665Z,6.32
2023-01-27T23:41:53.765Z,7.78
2023-01-27T23:44:21.898Z,7.03
2023-01-27T23:46:48.818Z,6.88
2023-01-27T23:49:15.708Z,9.48
2023-01-27T23:51:42.510Z,7.57
2023-01-27T23:54:09.467Z,8.82
2023-01-27T23:56:37.296Z,7.07
2023-01-27T23:59:06.317Z,7.10
